createdAt,value
2018-08-18T00:00:22.946Z,34.7
2018-08-18T00:01:25.392Z,34.9
2018-08-18T00:02:27.840Z,34.7
2018-08-18T00:03:30.015Z,34.8
2018-08-18T00:04:32.473Z,34.7
2018-08-18T00:05:34.621Z,34.5
2018-08-18T00:06:37.056Z,34.8
2018-08-18T00:07:38.947Z,34.8
2018-08-18T00:08:41.395Z,34.8
2018-08-18T00:09:43.337Z,34.8
2018-08-18T00:10:45.786Z,34.6
2018-08-18T00:11:48.225Z,34.8
2018-08-18T00:12:50.400Z,34.8
2018-08-18T00:13:52.844Z,34.8
2018-08-18T00:14:55.038Z,34.6
2018-08-18T00:15:57.486Z,34.8
2018-08-18T00:16:59.660Z,34.7
2018-08-18T00:18:01.814Z,34.6
2018-08-18T00:19:03.998Z,34.7
2018-08-18T00:20:06.159Z,34.8
2018-08-18T00:21:08.347Z,34.7
2018-08-18T00:22:10.804Z,34.7
2018-08-18T00:23:12.721Z,34.7
2018-08-18T00:24:14.901Z,34.7
2018-08-18T00:25:17.079Z,34.9
2018-08-18T00:26:19.269Z,34.7
2018-08-18T00:27:20.878Z,34.8
2018-08-18T00:28:22.807Z,34.7
2018-08-18T00:29:24.677Z,34.7
2018-08-18T00:30:26.888Z,34.8
2018-08-18T00:31:29.035Z,34.8
2018-08-18T00:32:31.217Z,34.7
2018-08-18T00:33:33.119Z,34.8
2018-08-18T00:34:35.265Z,34.7
2018-08-18T00:35:37.209Z,34.7
2018-08-18T00:36:39.086Z,34.6
2018-08-18T00:37:41.533Z,35
2018-08-18T00:38:43.983Z,34.7
2018-08-18T00:39:46.425Z,34.8
2018-08-18T00:40:48.575Z,34.6
2018-08-18T00:41:50.760Z,34.9
2018-08-18T00:42:52.635Z,34.8
2018-08-18T00:43:54.808Z,34.8
2018-08-18T00:44:56.675Z,34.8
2018-08-18T00:45:59.114Z,34.6
2018-08-18T00:47:01.285Z,34.9
2018-08-18T00:48:02.892Z,34.8
2018-08-18T00:49:05.345Z,35
2018-08-18T00:50:07.785Z,34.8
2018-08-18T00:51:10.230Z,34.9
2018-08-18T00:52:12.405Z,34.8
2018-08-18T00:53:14.844Z,34.8
2018-08-18T00:54:17.046Z,34.9
2018-08-18T00:55:18.955Z,34.7
2018-08-18T00:56:21.400Z,34.8
2018-08-18T00:57:23.314Z,34.8
2018-08-18T00:58:25.494Z,34.7
2018-08-18T00:59:27.946Z,34.7
2018-08-18T01:00:30.120Z,34.9
2018-08-18T01:01:32.037Z,34.8
2018-08-18T01:02:34.213Z,34.8
2018-08-18T01:03:36.103Z,34.8
2018-08-18T01:04:38.012Z,34.7
2018-08-18T01:05:40.467Z,34.8
2018-08-18T01:06:42.358Z,34.7
2018-08-18T01:07:44.801Z,34.8
2018-08-18T01:08:47.252Z,34.9
2018-08-18T01:09:49.421Z,34.9
2018-08-18T01:10:52.040Z,34.8
2018-08-18T01:11:55.100Z,34.9
2018-08-18T01:12:58.416Z,34.8
2018-08-18T01:14:01.366Z,34.9
2018-08-18T01:15:04.041Z,34.8
2018-08-18T01:16:06.583Z,34.9
2018-08-18T01:17:09.030Z,34.9
2018-08-18T01:18:11.186Z,34.9
2018-08-18T01:19:13.375Z,34.8
2018-08-18T01:20:15.811Z,34.9
2018-08-18T01:21:18.310Z,34.8
2018-08-18T01:22:20.260Z,34.9
2018-08-18T01:23:22.438Z,34.8
2018-08-18T01:24:24.308Z,34.9
2018-08-18T01:25:26.755Z,34.9
2018-08-18T01:26:29.205Z,34.9
2018-08-18T01:27:31.651Z,34.8
2018-08-18T01:28:33.816Z,34.9
2018-08-18T01:29:35.459Z,34.8
2018-08-18T01:30:37.895Z,34.9
2018-08-18T01:31:39.779Z,34.8
2018-08-18T01:32:41.944Z,34.9
2018-08-18T01:33:44.096Z,34.9
2018-08-18T01:34:46.554Z,34.9
2018-08-18T01:35:48.746Z,34.8
2018-08-18T01:36:51.214Z,34.7
2018-08-18T01:37:53.669Z,34.9
2018-08-18T01:38:55.555Z,34.8
2018-08-18T01:39:57.475Z,35
2018-08-18T01:40:59.359Z,34.9
2018-08-18T01:42:01.279Z,35
2018-08-18T01:43:03.464Z,34.9
2018-08-18T01:44:05.905Z,34.9
2018-08-18T01:45:08.070Z,35
2018-08-18T01:46:10.257Z,34.9
2018-08-18T01:47:12.153Z,35
2018-08-18T01:48:13.765Z,34.9
2018-08-18T01:49:16.205Z,35
2018-08-18T01:50:18.082Z,35
2018-08-18T01:51:20.267Z,35
2018-08-18T01:52:21.907Z,35
2018-08-18T01:53:23.822Z,34.9
2018-08-18T01:54:26.270Z,34.9
2018-08-18T01:55:28.711Z,35
2018-08-18T01:56:30.888Z,35
2018-08-18T01:57:33.343Z,35
2018-08-18T01:58:35.782Z,34.9
2018-08-18T01:59:38.287Z,34.8
2018-08-18T02:00:40.744Z,34.8
2018-08-18T02:01:42.615Z,35
2018-08-18T02:02:44.836Z,34.8
2018-08-18T02:03:47.006Z,35.1
2018-08-18T02:04:49.457Z,34.9
2018-08-18T02:05:51.900Z,34.9
2018-08-18T02:06:54.060Z,35
2018-08-18T02:07:56.235Z,34.9
2018-08-18T02:08:58.407Z,34.9
2018-08-18T02:10:00.563Z,35
2018-08-18T02:11:02.725Z,34.9
2018-08-18T02:12:05.169Z,35
2018-08-18T02:13:07.617Z,35
2018-08-18T02:14:09.774Z,35
2018-08-18T02:15:11.652Z,34.9
2018-08-18T02:16:14.096Z,34.9
2018-08-18T02:17:15.987Z,34.9
2018-08-18T02:18:18.161Z,35
2018-08-18T02:19:19.805Z,35
2018-08-18T02:20:22.260Z,35.1
2018-08-18T02:21:24.185Z,35
2018-08-18T02:22:26.083Z,35
2018-08-18T02:23:28.526Z,35
2018-08-18T02:24:30.976Z,35
2018-08-18T02:25:33.422Z,35
2018-08-18T02:26:35.896Z,35
2018-08-18T02:27:38.358Z,34.9
2018-08-18T02:28:40.805Z,35
2018-08-18T02:29:43.254Z,35
2018-08-18T02:30:45.703Z,35
2018-08-18T02:31:47.320Z,35
2018-08-18T02:32:49.784Z,34.9
2018-08-18T02:33:51.973Z,34.9
2018-08-18T02:34:54.155Z,35
2018-08-18T02:35:56.329Z,34.9
2018-08-18T02:36:58.500Z,35.1
2018-08-18T02:38:00.678Z,35
2018-08-18T02:39:02.845Z,34.9
2018-08-18T02:40:05.421Z,35
2018-08-18T02:41:08.362Z,35.1
2018-08-18T02:42:10.561Z,35.1
2018-08-18T02:43:13.021Z,35.1
2018-08-18T02:44:15.186Z,35.1
2018-08-18T02:45:17.398Z,35.1
2018-08-18T02:46:19.843Z,35.1
2018-08-18T02:47:22.293Z,35
2018-08-18T02:48:24.743Z,35
2018-08-18T02:49:27.186Z,35.2
2018-08-18T02:50:29.636Z,35.1
2018-08-18T02:51:31.813Z,35.1
2018-08-18T02:52:33.993Z,35.2
2018-08-18T02:53:36.436Z,35.2
2018-08-18T02:54:38.891Z,35.1
2018-08-18T02:55:41.336Z,35.2
2018-08-18T02:56:43.783Z,35.1
2018-08-18T02:57:45.707Z,35
2018-08-18T02:58:47.859Z,35.1
2018-08-18T02:59:50.295Z,35.1
2018-08-18T03:00:51.940Z,35.1
2018-08-18T03:01:54.087Z,35.2
2018-08-18T03:02:56.255Z,35.1
2018-08-18T03:03:58.712Z,35
2018-08-18T03:05:00.618Z,35
2018-08-18T03:06:02.523Z,35.1
2018-08-18T03:07:04.427Z,35.1
2018-08-18T03:08:06.023Z,34.9
2018-08-18T03:09:08.205Z,35
2018-08-18T03:10:10.651Z,35
2018-08-18T03:11:12.843Z,35
2018-08-18T03:12:14.772Z,35.1
2018-08-18T03:13:17.219Z,35.1
2018-08-18T03:14:19.400Z,35
2018-08-18T03:15:21.846Z,34.9
2018-08-18T03:16:24.307Z,34.8
2018-08-18T03:17:26.775Z,35
2018-08-18T03:18:28.675Z,34.8
2018-08-18T03:19:30.856Z,34.9
2018-08-18T03:20:32.742Z,34.8
2018-08-18T03:21:35.182Z,34.9
2018-08-18T03:22:37.369Z,34.9
2018-08-18T03:23:39.547Z,34.9
2018-08-18T03:24:42.001Z,35
2018-08-18T03:25:44.443Z,34.9
2018-08-18T03:26:46.619Z,34.8
2018-08-18T03:27:48.516Z,34.8
2018-08-18T03:28:50.699Z,34.8
2018-08-18T03:29:53.170Z,34.6
2018-08-18T03:30:54.779Z,34.8
2018-08-18T03:31:56.959Z,34.8
2018-08-18T03:32:59.399Z,34.9
2018-08-18T03:34:01.589Z,34.7
2018-08-18T03:35:04.034Z,34.7
2018-08-18T03:36:06.480Z,34.8
2018-08-18T03:37:08.382Z,34.8
2018-08-18T03:38:10.270Z,34.6
2018-08-18T03:39:12.445Z,34.8
2018-08-18T03:40:14.899Z,34.7
2018-08-18T03:41:17.069Z,34.8
2018-08-18T03:42:19.509Z,34.9
2018-08-18T03:43:21.963Z,34.6
2018-08-18T03:44:24.395Z,34.6
2018-08-18T03:45:26.875Z,34.7
2018-08-18T03:46:29.325Z,34.7
2018-08-18T03:47:31.465Z,34.7
2018-08-18T03:48:33.900Z,34.7
2018-08-18T03:49:36.349Z,34.7
2018-08-18T03:50:38.492Z,34.7
2018-08-18T03:51:40.934Z,34.8
2018-08-18T03:52:43.105Z,34.6
2018-08-18T03:53:45.294Z,34.5
2018-08-18T03:54:47.759Z,34.7
2018-08-18T03:55:49.675Z,34.6
2018-08-18T03:56:51.577Z,34.6
2018-08-18T03:57:54.022Z,34.6
2018-08-18T03:58:56.219Z,34.6
2018-08-18T03:59:58.395Z,34.5
2018-08-18T04:01:00.294Z,34.7
2018-08-18T04:02:02.640Z,34.7
2018-08-18T04:03:05.237Z,34.6
2018-08-18T04:04:07.685Z,34.6
2018-08-18T04:05:10.126Z,34.5
2018-08-18T04:06:12.015Z,34.7
2018-08-18T04:07:13.929Z,34.5
2018-08-18T04:08:16.371Z,34.5
2018-08-18T04:09:19.099Z,34.6
2018-08-18T04:10:21.931Z,34.4
2018-08-18T04:11:24.106Z,34.7
2018-08-18T04:12:26.556Z,34.5
2018-08-18T04:13:28.705Z,34.7
2018-08-18T04:14:30.602Z,34.5
2018-08-18T04:15:33.040Z,34.5
2018-08-18T04:16:34.964Z,34.6
2018-08-18T04:17:37.139Z,34.3
2018-08-18T04:18:39.328Z,34.5
2018-08-18T04:19:41.781Z,34.6
2018-08-18T04:20:44.233Z,34.5
2018-08-18T04:21:46.414Z,34.4
2018-08-18T04:22:48.295Z,34.4
2018-08-18T04:23:50.744Z,34.4
2018-08-18T04:24:53.183Z,34.5
2018-08-18T04:25:55.632Z,34.4
2018-08-18T04:26:57.788Z,34.3
2018-08-18T04:28:00.236Z,34.5
2018-08-18T04:29:02.420Z,34.4
2018-08-18T04:30:04.300Z,34.4
2018-08-18T04:31:06.477Z,34.4
2018-08-18T04:32:08.656Z,34.5
2018-08-18T04:33:10.826Z,34.4
2018-08-18T04:34:13.276Z,34.3
2018-08-18T04:35:15.815Z,34.3
2018-08-18T04:36:18.170Z,34.4
2018-08-18T04:37:20.063Z,34.4
2018-08-18T04:38:21.966Z,34.4
2018-08-18T04:39:24.141Z,34.5
2018-08-18T04:40:26.052Z,34.4
2018-08-18T04:41:28.235Z,34.5
2018-08-18T04:42:29.820Z,34.4
2018-08-18T04:43:32.275Z,34.4
2018-08-18T04:44:34.458Z,34.5
2018-08-18T04:45:36.600Z,34.3
2018-08-18T04:46:38.773Z,34.2
2018-08-18T04:47:41.220Z,34.4
2018-08-18T04:48:43.362Z,34.5
2018-08-18T04:49:45.806Z,34.4
2018-08-18T04:50:47.723Z,34.4
2018-08-18T04:51:50.186Z,34.3
2018-08-18T04:52:52.094Z,34.3
2018-08-18T04:53:54.549Z,34.3
2018-08-18T04:54:56.979Z,34.3
2018-08-18T04:55:59.159Z,34.3
2018-08-18T04:57:01.797Z,34.5
2018-08-18T04:58:04.236Z,34.5
2018-08-18T04:59:06.696Z,34.4
2018-08-18T05:00:08.570Z,34.3
2018-08-18T05:01:11.028Z,34.5
2018-08-18T05:02:13.203Z,34.4
2018-08-18T05:03:14.809Z,34.3
2018-08-18T05:04:17.311Z,34.3
2018-08-18T05:05:19.497Z,34.3
2018-08-18T05:06:21.950Z,34.4
2018-08-18T05:07:24.406Z,34.5
2018-08-18T05:08:26.287Z,34.3
2018-08-18T05:09:28.515Z,34.3
2018-08-18T05:10:30.958Z,34.4
2018-08-18T05:11:33.469Z,34.5
2018-08-18T05:12:36.144Z,34.3
2018-08-18T05:13:38.035Z,34.5
2018-08-18T05:14:39.922Z,34.4
2018-08-18T05:15:41.839Z,34.5
2018-08-18T05:16:44.291Z,34.4
2018-08-18T05:17:46.744Z,34.5
2018-08-18T05:18:49.298Z,34.4
2018-08-18T05:19:51.567Z,34.3
2018-08-18T05:20:53.728Z,34.5
2018-08-18T05:21:55.361Z,34.4
2018-08-18T05:22:57.797Z,34.5
2018-08-18T05:23:59.676Z,34.3
2018-08-18T05:25:01.846Z,34.4
2018-08-18T05:26:04.295Z,34.5
2018-08-18T05:27:06.445Z,34.3
2018-08-18T05:28:08.593Z,34.4
2018-08-18T05:29:10.779Z,34.3
2018-08-18T05:30:13.236Z,34.5
2018-08-18T05:31:15.386Z,34.4
2018-08-18T05:32:17.564Z,34.3
2018-08-18T05:33:20.006Z,34.4
2018-08-18T05:34:22.160Z,34.4
2018-08-18T05:35:24.317Z,34.5
2018-08-18T05:36:26.544Z,34.5
2018-08-18T05:37:28.788Z,34.3
2018-08-18T05:38:30.668Z,34.5
2018-08-18T05:39:32.844Z,34.4
2018-08-18T05:40:35.024Z,34.4
2018-08-18T05:41:37.476Z,34.4
2018-08-18T05:42:39.644Z,34.4
2018-08-18T05:43:41.257Z,34.5
2018-08-18T05:44:43.707Z,34.4
2018-08-18T05:45:45.904Z,34.3
2018-08-18T05:46:48.084Z,34.4
2018-08-18T05:47:50.573Z,34.5
2018-08-18T05:48:53.053Z,34.4
2018-08-18T05:49:55.503Z,34.3
2018-08-18T05:50:57.970Z,34.4
2018-08-18T05:52:00.170Z,34.3
2018-08-18T05:53:02.611Z,34.3
2018-08-18T05:54:05.075Z,34.3
2018-08-18T05:55:07.221Z,34.3
2018-08-18T05:56:09.680Z,34.4
2018-08-18T05:57:12.126Z,34.3
2018-08-18T05:58:14.571Z,34.4
2018-08-18T05:59:16.460Z,34.4
2018-08-18T06:00:18.914Z,34.5
2018-08-18T06:01:20.273Z,34.5
2018-08-18T06:02:22.460Z,34.4
2018-08-18T06:03:24.373Z,34.4
2018-08-18T06:04:26.537Z,34.4
2018-08-18T06:05:28.706Z,34.3
2018-08-18T06:06:30.930Z,34.4
2018-08-18T06:07:33.372Z,34.4
2018-08-18T06:08:35.552Z,34.4
2018-08-18T06:09:37.716Z,34.5
2018-08-18T06:10:39.913Z,34.3
2018-08-18T06:11:42.086Z,34.5
2018-08-18T06:12:44.268Z,34.4
2018-08-18T06:13:46.701Z,34.4
2018-08-18T06:14:48.877Z,34.4
2018-08-18T06:15:50.789Z,34.3
2018-08-18T06:16:52.957Z,34.3
2018-08-18T06:17:54.878Z,34.4
2018-08-18T06:18:57.047Z,34.4
2018-08-18T06:19:58.973Z,34.5
2018-08-18T06:21:01.158Z,34.5
2018-08-18T06:22:03.607Z,34.5
2018-08-18T06:23:05.778Z,34.3
2018-08-18T06:24:07.955Z,34.4
2018-08-18T06:25:09.873Z,34.5
2018-08-18T06:26:12.331Z,34.4
2018-08-18T06:27:14.786Z,34.3
2018-08-18T06:28:17.234Z,34.4
2018-08-18T06:29:19.407Z,34.3
2018-08-18T06:30:21.921Z,34.4
2018-08-18T06:31:23.549Z,34.3
2018-08-18T06:32:25.993Z,34.4
2018-08-18T06:33:28.205Z,34.4
2018-08-18T06:34:30.211Z,34.6
2018-08-18T06:35:33.018Z,34.4
2018-08-18T06:36:35.176Z,34.4
2018-08-18T06:37:37.695Z,34.4
2018-08-18T06:38:39.588Z,34.4
2018-08-18T06:39:42.021Z,34.5
2018-08-18T06:40:44.244Z,34.5
2018-08-18T06:41:47.056Z,34.4
2018-08-18T06:42:50.548Z,34.4
2018-08-18T06:43:52.464Z,34.5
2018-08-18T06:44:54.651Z,34.5
2018-08-18T06:45:56.833Z,34.4
2018-08-18T06:46:59.041Z,34.3
2018-08-18T06:48:01.497Z,34.4
2018-08-18T06:49:03.388Z,34.4
2018-08-18T06:50:05.873Z,34.5
2018-08-18T06:51:08.318Z,34.2
2018-08-18T06:52:10.502Z,34.3
2018-08-18T06:53:12.694Z,34.4
2018-08-18T06:54:14.930Z,34.3
2018-08-18T06:55:17.863Z,34.4
2018-08-18T06:56:20.331Z,34.5
2018-08-18T06:57:22.507Z,34.4
2018-08-18T06:58:24.416Z,34.4
2018-08-18T06:59:26.318Z,34.3
2018-08-18T07:00:28.486Z,34.3
2018-08-18T07:01:30.665Z,34.3
2018-08-18T07:02:32.853Z,34.5
2018-08-18T07:03:35.021Z,34.4
2018-08-18T07:04:37.469Z,34.3
2018-08-18T07:05:39.917Z,34.3
2018-08-18T07:06:42.377Z,34.3
2018-08-18T07:07:44.561Z,34.2
2018-08-18T07:08:46.744Z,34.3
2018-08-18T07:09:48.952Z,34.4
2018-08-18T07:10:50.575Z,34.3
2018-08-18T07:11:53.035Z,34.3
2018-08-18T07:12:55.497Z,34.3
2018-08-18T07:13:57.676Z,34.3
2018-08-18T07:14:59.847Z,34.3
2018-08-18T07:16:02.025Z,34.3
2018-08-18T07:17:03.926Z,34.5
2018-08-18T07:18:06.396Z,34.3
2018-08-18T07:19:08.857Z,34.4
2018-08-18T07:20:10.757Z,34.2
2018-08-18T07:21:12.935Z,34.3
2018-08-18T07:22:15.387Z,34.4
2018-08-18T07:23:17.308Z,34.4
2018-08-18T07:24:19.215Z,34.3
2018-08-18T07:25:21.659Z,34.3
2018-08-18T07:26:23.827Z,34.3
2018-08-18T07:27:26.271Z,34.3
2018-08-18T07:28:28.600Z,34.3
2018-08-18T07:29:30.854Z,34.3
2018-08-18T07:30:33.302Z,34.3
2018-08-18T07:31:35.466Z,34.3
2018-08-18T07:32:37.616Z,34.3
2018-08-18T07:33:40.056Z,34.2
2018-08-18T07:34:41.687Z,34.2
2018-08-18T07:35:43.876Z,34.2
2018-08-18T07:36:46.081Z,34.3
2018-08-18T07:37:48.265Z,34.4
2018-08-18T07:38:50.729Z,34.5
2018-08-18T07:39:52.906Z,34.4
2018-08-18T07:40:55.352Z,34.3
2018-08-18T07:41:57.801Z,34.3
2018-08-18T07:42:59.450Z,34.4
2018-08-18T07:44:01.596Z,34.4
2018-08-18T07:45:04.047Z,34.5
2018-08-18T07:46:05.949Z,34.3
2018-08-18T07:47:07.850Z,34.3
2018-08-18T07:48:10.521Z,34.6
2018-08-18T07:49:13.496Z,34.4
2018-08-18T07:50:15.686Z,34.4
2018-08-18T07:51:17.871Z,34.3
2018-08-18T07:52:20.067Z,34.5
2018-08-18T07:53:22.633Z,34.4
2018-08-18T07:54:25.242Z,34.4
2018-08-18T07:55:27.150Z,34.4
2018-08-18T07:56:29.318Z,34.3
2018-08-18T07:57:31.786Z,34.3
2018-08-18T07:58:33.925Z,34.4
2018-08-18T07:59:36.295Z,34.4
2018-08-18T08:00:38.686Z,34.5
2018-08-18T08:01:40.869Z,34.4
2018-08-18T08:02:43.320Z,34.4
2018-08-18T08:03:45.499Z,34.4
2018-08-18T08:04:47.960Z,34.3
2018-08-18T08:05:50.373Z,34.4
2018-08-18T08:06:52.821Z,34.3
2018-08-18T08:07:54.741Z,34.3
2018-08-18T08:08:56.635Z,34.4
2018-08-18T08:09:58.816Z,34.4
2018-08-18T08:11:00.990Z,34.4
2018-08-18T08:12:03.449Z,34.3
2018-08-18T08:13:05.614Z,34.2
2018-08-18T08:14:08.068Z,34.3
2018-08-18T08:15:10.517Z,34.5
2018-08-18T08:16:12.722Z,34.4
2018-08-18T08:17:14.594Z,34.4
2018-08-18T08:18:16.780Z,34.5
2018-08-18T08:19:19.341Z,34.4
2018-08-18T08:20:21.210Z,34.3
2018-08-18T08:21:23.115Z,34.3
2018-08-18T08:22:25.297Z,34.5
2018-08-18T08:23:27.739Z,34.3
2018-08-18T08:24:30.224Z,34.4
2018-08-18T08:25:32.378Z,34.4
2018-08-18T08:26:34.554Z,34.4
2018-08-18T08:27:36.696Z,34.4
2018-08-18T08:28:38.919Z,34.5
2018-08-18T08:29:41.367Z,34.4
2018-08-18T08:30:43.556Z,34.5
2018-08-18T08:31:45.722Z,34.4
2018-08-18T08:32:48.168Z,34.4
2018-08-18T08:33:50.345Z,34.5
2018-08-18T08:34:52.817Z,34.4
2018-08-18T08:35:54.699Z,34.3
2018-08-18T08:36:56.883Z,34.4
2018-08-18T08:37:59.066Z,34.4
2018-08-18T08:39:00.688Z,34.4
2018-08-18T08:40:03.135Z,34.3
2018-08-18T08:41:05.063Z,34.3
2018-08-18T08:42:07.212Z,34.3
2018-08-18T08:43:09.422Z,34.4
2018-08-18T08:44:11.626Z,34.5
2018-08-18T08:45:13.784Z,34.5
2018-08-18T08:46:15.917Z,34.3
2018-08-18T08:47:17.808Z,34.4
2018-08-18T08:48:19.697Z,34.3
2018-08-18T08:49:22.173Z,34.4
2018-08-18T08:50:24.630Z,34.4
2018-08-18T08:51:27.110Z,34.4
2018-08-18T08:52:29.545Z,34.3
2018-08-18T08:53:31.722Z,34.3
2018-08-18T08:54:34.174Z,34.4
2018-08-18T08:55:36.643Z,34.4
2018-08-18T08:56:38.833Z,34.3
2018-08-18T08:57:41.274Z,34.4
2018-08-18T08:58:43.757Z,34.3
2018-08-18T08:59:46.213Z,34.3
2018-08-18T09:00:48.395Z,34.3
2018-08-18T09:01:50.856Z,34.3
2018-08-18T09:02:53.037Z,34.4
2018-08-18T09:03:55.204Z,34.3
2018-08-18T09:04:57.668Z,34.4
2018-08-18T09:05:59.834Z,34.2
2018-08-18T09:07:02.296Z,34.4
2018-08-18T09:08:04.765Z,34.4
2018-08-18T09:09:07.207Z,34.5
2018-08-18T09:10:09.435Z,34.3
2018-08-18T09:11:12.026Z,34.3
2018-08-18T09:12:13.900Z,34.3
2018-08-18T09:13:16.076Z,34.4
2018-08-18T09:14:18.260Z,34.3
2018-08-18T09:15:20.696Z,34.4
2018-08-18T09:16:23.097Z,34.4
2018-08-18T09:17:25.548Z,34.6
2018-08-18T09:18:27.993Z,34.3
2018-08-18T09:19:30.445Z,34.3
2018-08-18T09:20:32.885Z,34.4
2018-08-18T09:21:34.748Z,34.4
2018-08-18T09:22:36.921Z,34.3
2018-08-18T09:23:39.087Z,34.3
2018-08-18T09:24:40.985Z,34.3
2018-08-18T09:25:42.336Z,34.4
2018-08-18T09:26:44.798Z,34.4
2018-08-18T09:27:47.288Z,34.4
2018-08-18T09:28:49.216Z,34.3
2018-08-18T09:29:51.391Z,34.4
2018-08-18T09:30:53.269Z,34.4
2018-08-18T09:31:55.717Z,34.4
2018-08-18T09:32:57.630Z,34.3
2018-08-18T09:34:00.083Z,34.3
2018-08-18T09:35:02.528Z,34.4
2018-08-18T09:36:04.972Z,34.3
2018-08-18T09:37:07.169Z,34.3
2018-08-18T09:38:08.797Z,34.4
2018-08-18T09:39:10.966Z,34.4
2018-08-18T09:40:13.418Z,34.3
2018-08-18T09:41:15.859Z,34.5
2018-08-18T09:42:18.307Z,34.3
2018-08-18T09:43:20.472Z,34.4
2018-08-18T09:44:22.913Z,34.3
2018-08-18T09:45:25.448Z,34.2
2018-08-18T09:46:28.323Z,34.4
2018-08-18T09:47:30.379Z,34.3
2018-08-18T09:48:32.277Z,34.3
2018-08-18T09:49:34.449Z,34.4
2018-08-18T09:50:36.625Z,34.4
2018-08-18T09:51:39.096Z,34.2
2018-08-18T09:52:41.549Z,34.4
2018-08-18T09:53:43.728Z,34.4
2018-08-18T09:54:46.178Z,34.4
2018-08-18T09:55:48.348Z,34.4
2018-08-18T09:56:50.256Z,34.4
2018-08-18T09:57:52.465Z,34.4
2018-08-18T09:58:54.652Z,34.4
2018-08-18T09:59:56.797Z,34.3
2018-08-18T10:00:59.244Z,34.4
2018-08-18T10:02:01.161Z,34.4
2018-08-18T10:03:03.605Z,34.3
2018-08-18T10:04:06.055Z,34.3
2018-08-18T10:05:07.950Z,34.3
2018-08-18T10:06:10.136Z,34.4
2018-08-18T10:07:12.581Z,34.3
2018-08-18T10:08:14.760Z,34.3
2018-08-18T10:09:16.944Z,34.4
2018-08-18T10:10:19.385Z,34.4
2018-08-18T10:11:21.549Z,34.3
2018-08-18T10:12:23.736Z,34.2
2018-08-18T10:13:25.929Z,34.4
2018-08-18T10:14:28.386Z,34.4
2018-08-18T10:15:30.844Z,34.5
2018-08-18T10:16:33.292Z,34.3
2018-08-18T10:17:34.892Z,34.3
2018-08-18T10:18:37.065Z,34.4
2018-08-18T10:19:39.523Z,34.3
2018-08-18T10:20:41.676Z,34.4
2018-08-18T10:21:43.586Z,34.3
2018-08-18T10:22:45.736Z,34.4
2018-08-18T10:23:47.605Z,34.2
2018-08-18T10:24:49.494Z,34.4
2018-08-18T10:25:51.665Z,34.3
2018-08-18T10:26:53.819Z,34.3
2018-08-18T10:27:56.265Z,34.4
2018-08-18T10:28:58.451Z,34.4
2018-08-18T10:30:00.910Z,34.3
2018-08-18T10:31:02.799Z,34.4
2018-08-18T10:32:05.288Z,34.3
2018-08-18T10:33:07.736Z,34.3
2018-08-18T10:34:10.236Z,34.4
2018-08-18T10:35:12.687Z,34.3
2018-08-18T10:36:14.866Z,34.4
2018-08-18T10:37:17.311Z,34.4
2018-08-18T10:38:19.471Z,34.4
2018-08-18T10:39:21.914Z,34.4
2018-08-18T10:40:24.068Z,34.2
2018-08-18T10:41:26.522Z,34.4
2018-08-18T10:42:28.699Z,34.3
2018-08-18T10:43:30.860Z,34.3
2018-08-18T10:44:33.307Z,34.3
2018-08-18T10:45:35.755Z,34.4
2018-08-18T10:46:37.671Z,34.3
2018-08-18T10:47:39.286Z,34.3
2018-08-18T10:48:41.747Z,34.3
2018-08-18T10:49:43.940Z,34.3
2018-08-18T10:50:45.566Z,34.4
2018-08-18T10:51:47.466Z,34.4
2018-08-18T10:52:49.362Z,34.4
2018-08-18T10:53:51.275Z,34.5
2018-08-18T10:54:53.446Z,34.4
2018-08-18T10:55:55.351Z,34.4
2018-08-18T10:56:57.796Z,34.5
2018-08-18T10:57:59.695Z,34.5
2018-08-18T10:59:01.880Z,34.5
2018-08-18T11:00:03.520Z,34.3
2018-08-18T11:01:05.979Z,34.4
2018-08-18T11:02:08.160Z,34.4
2018-08-18T11:03:10.076Z,34.4
2018-08-18T11:04:12.257Z,34.4
2018-08-18T11:05:14.455Z,34.3
2018-08-18T11:06:16.348Z,34.4
2018-08-18T11:07:18.802Z,34.4
2018-08-18T11:08:21.255Z,34.4
2018-08-18T11:09:23.429Z,34.4
2018-08-18T11:10:25.868Z,34.5
2018-08-18T11:11:28.055Z,34.4
2018-08-18T11:12:30.222Z,34.3
2018-08-18T11:13:32.414Z,34.4
2018-08-18T11:14:34.864Z,34.5
2018-08-18T11:15:36.738Z,34.3
2018-08-18T11:16:38.380Z,34.4
2018-08-18T11:17:40.555Z,34.4
2018-08-18T11:18:42.748Z,34.5
2018-08-18T11:19:45.200Z,34.4
2018-08-18T11:20:47.654Z,34.3
2018-08-18T11:21:49.862Z,34.5
2018-08-18T11:22:51.643Z,34.4
2018-08-18T11:23:53.804Z,34.5
2018-08-18T11:24:56.247Z,34.4
2018-08-18T11:25:58.704Z,34.5
2018-08-18T11:27:00.594Z,34.5
2018-08-18T11:28:02.772Z,34.4
2018-08-18T11:29:05.250Z,34.4
2018-08-18T11:30:07.422Z,34.5
2018-08-18T11:31:09.299Z,34.4
2018-08-18T11:32:11.211Z,34.4
2018-08-18T11:33:13.402Z,34.5
2018-08-18T11:34:15.582Z,34.4
2018-08-18T11:35:17.777Z,34.4
2018-08-18T11:36:19.931Z,34.5
2018-08-18T11:37:22.393Z,34.5
2018-08-18T11:38:24.862Z,34.5
2018-08-18T11:39:27.309Z,34.5
2018-08-18T11:40:29.478Z,34.4
2018-08-18T11:41:32.084Z,34.5
2018-08-18T11:42:34.387Z,34.4
2018-08-18T11:43:36.578Z,34.4
2018-08-18T11:44:39.033Z,34.5
2018-08-18T11:45:41.173Z,34.4
2018-08-18T11:46:43.635Z,34.4
2018-08-18T11:47:45.251Z,34.4
2018-08-18T11:48:47.425Z,34.5
2018-08-18T11:49:49.906Z,34.5
2018-08-18T11:50:52.081Z,34.5
2018-08-18T11:51:54.542Z,34.4
2018-08-18T11:52:56.433Z,34.4
2018-08-18T11:53:58.879Z,34.6
2018-08-18T11:55:01.333Z,34.5
2018-08-18T11:56:03.236Z,34.6
2018-08-18T11:57:05.684Z,34.5
2018-08-18T11:58:08.138Z,34.5
2018-08-18T11:59:10.077Z,34.4
2018-08-18T12:00:12.270Z,34.5
2018-08-18T12:01:14.438Z,34.5
2018-08-18T12:02:16.625Z,34.3
2018-08-18T12:03:18.796Z,34.4
2018-08-18T12:04:20.992Z,34.6
2018-08-18T12:05:23.147Z,34.3
2018-08-18T12:06:25.060Z,34.5
2018-08-18T12:07:27.514Z,34.5
2018-08-18T12:08:29.171Z,34.4
2018-08-18T12:09:31.618Z,34.3
2018-08-18T12:10:34.198Z,34.5
2018-08-18T12:11:37.004Z,34.5
2018-08-18T12:12:39.452Z,34.3
2018-08-18T12:13:41.896Z,34.5
2018-08-18T12:14:44.347Z,34.3
2018-08-18T12:15:46.576Z,34.5
2018-08-18T12:16:49.020Z,34.3
2018-08-18T12:17:51.456Z,34.5
2018-08-18T12:18:53.912Z,34.3
2018-08-18T12:19:56.086Z,34.5
2018-08-18T12:20:58.571Z,34.6
2018-08-18T12:22:00.716Z,34.4
2018-08-18T12:23:02.883Z,34.4
2018-08-18T12:24:05.076Z,34.5
2018-08-18T12:25:07.505Z,34.5
2018-08-18T12:26:09.960Z,34.5
2018-08-18T12:27:12.409Z,34.5
2018-08-18T12:28:14.122Z,34.5
2018-08-18T12:29:16.565Z,34.5
2018-08-18T12:30:19.013Z,34.4
2018-08-18T12:31:21.471Z,34.5
2018-08-18T12:32:23.674Z,34.6
2018-08-18T12:33:26.118Z,34.4
2018-08-18T12:34:28.021Z,34.6
2018-08-18T12:35:30.477Z,34.5
2018-08-18T12:36:32.866Z,34.6
2018-08-18T12:37:35.913Z,34.6
2018-08-18T12:38:38.528Z,34.5
2018-08-18T12:39:40.716Z,34.6
2018-08-18T12:40:43.158Z,34.5
2018-08-18T12:41:45.605Z,34.5
2018-08-18T12:42:48.046Z,34.6
2018-08-18T12:43:49.930Z,34.5
2018-08-18T12:44:52.391Z,34.4
2018-08-18T12:45:54.834Z,34.4
2018-08-18T12:46:57.015Z,34.5
2018-08-18T12:47:59.196Z,34.4
2018-08-18T12:49:01.646Z,34.5
2018-08-18T12:50:04.484Z,34.5
2018-08-18T12:51:07.660Z,34.5
2018-08-18T12:52:09.545Z,34.4
2018-08-18T12:53:11.717Z,34.4
2018-08-18T12:54:13.892Z,34.6
2018-08-18T12:55:16.077Z,34.5
2018-08-18T12:56:18.573Z,34.6
2018-08-18T12:57:21.097Z,34.5
2018-08-18T12:58:23.706Z,34.6
2018-08-18T12:59:26.382Z,34.6
2018-08-18T13:00:28.831Z,34.5
2018-08-18T13:01:31.298Z,34.6
2018-08-18T13:02:33.475Z,34.4
2018-08-18T13:03:35.648Z,34.5
2018-08-18T13:04:38.113Z,34.5
2018-08-18T13:05:40.280Z,34.6
2018-08-18T13:06:42.453Z,34.7
2018-08-18T13:07:44.625Z,34.7
2018-08-18T13:08:47.071Z,34.6
2018-08-18T13:09:48.970Z,34.5
2018-08-18T13:10:51.137Z,34.6
2018-08-18T13:11:53.055Z,34.5
2018-08-18T13:12:55.499Z,34.5
2018-08-18T13:13:57.421Z,34.5
2018-08-18T13:14:59.623Z,34.6
2018-08-18T13:16:01.824Z,34.7
2018-08-18T13:17:04.290Z,34.5
2018-08-18T13:18:06.741Z,34.6
2018-08-18T13:19:08.644Z,34.5
2018-08-18T13:20:10.834Z,34.6
2018-08-18T13:21:13.016Z,34.5
2018-08-18T13:22:15.164Z,34.6
2018-08-18T13:23:17.365Z,34.6
2018-08-18T13:24:19.557Z,34.4
2018-08-18T13:25:22.024Z,34.6
2018-08-18T13:26:24.569Z,34.7
2018-08-18T13:27:27.217Z,34.7
2018-08-18T13:28:29.663Z,34.5
2018-08-18T13:29:31.846Z,34.4
2018-08-18T13:30:34.023Z,34.6
2018-08-18T13:31:35.956Z,34.6
2018-08-18T13:32:38.145Z,34.6
2018-08-18T13:33:40.333Z,34.5
2018-08-18T13:34:42.805Z,34.6
2018-08-18T13:35:44.993Z,34.6
2018-08-18T13:36:47.230Z,34.4
2018-08-18T13:37:49.420Z,34.6
2018-08-18T13:38:51.602Z,34.5
2018-08-18T13:39:54.055Z,34.6
2018-08-18T13:40:56.235Z,34.7
2018-08-18T13:41:58.418Z,34.6
2018-08-18T13:43:00.594Z,34.4
2018-08-18T13:44:02.734Z,34.5
2018-08-18T13:45:05.193Z,34.6
2018-08-18T13:46:07.084Z,34.4
2018-08-18T13:47:08.738Z,34.6
2018-08-18T13:48:10.985Z,34.6
2018-08-18T13:49:13.425Z,34.7
2018-08-18T13:50:15.874Z,34.6
2018-08-18T13:51:18.314Z,34.7